Baltic, South Dakota
Current Conditions -  °F | °C
As of 1:56 PM on Thursday 29 Jan 2015 (Local Time) from KFSD Reporting Station
Overcast Overcast  
Wind Chill: 18°   Ceiling: 2300
Heat Index: 31°   Visibility: 10mi
Dew Point: 21°   Wind: 21mph
Humidity: 67%   Direction: 330°NNW
Pressure: 30.41"   Gusts: 28mph
Location:  43.76°N, 96.74°W
Report Text: KFSD 291956Z 33018G24KT 10SM OVC023 M01/M06 A3041 RMK AO2 PK WND 34027/1903 SLP315 T10061061
Loading
Personal Weather Stations






























Interactive Weather Map New forecast layout! Learn more

10-Day Weather Forecast

Advertisements
Track Severe Weather on mobile